createdAt,value
2023-08-06T00:00:41.230Z,4.85
2023-08-06T00:03:07.213Z,5.53
2023-08-06T00:05:33.109Z,5.53
2023-08-06T00:07:58.906Z,4.97
2023-08-06T00:10:25.016Z,5.43
2023-08-06T00:12:50.851Z,5.18
2023-08-06T00:15:16.698Z,5.68
2023-08-06T00:17:42.600Z,5.50
2023-08-06T00:20:08.536Z,6.22
2023-08-06T00:22:35.045Z,5.35
2023-08-06T00:25:00.951Z,5.82
2023-08-06T00:27:27.164Z,5.65
2023-08-06T00:29:53.127Z,6.20
2023-08-06T00:32:18.997Z,5.50
2023-08-06T00:34:44.830Z,6.28
2023-08-06T00:37:10.646Z,5.53
2023-08-06T00:39:36.436Z,5.97
2023-08-06T00:42:02.343Z,5.90
2023-08-06T00:44:28.232Z,5.82
2023-08-06T00:46:54.064Z,5.90
2023-08-06T00:49:20.048Z,6.78
2023-08-06T00:51:45.967Z,5.45
2023-08-06T00:54:11.781Z,6.65
2023-08-06T00:56:37.593Z,6.10
2023-08-06T00:59:04.787Z,5.93
2023-08-06T01:01:30.701Z,6.68
2023-08-06T01:03:56.596Z,6.38
2023-08-06T01:06:29.987Z,7.13
2023-08-06T01:09:06.109Z,6.57
2023-08-06T01:11:38.620Z,6.25
2023-08-06T01:14:22.375Z,5.30
2023-08-06T01:16:49.510Z,5.93
2023-08-06T01:19:19.120Z,6.40
2023-08-06T01:21:45.081Z,5.53
2023-08-06T01:24:11.306Z,6.70
2023-08-06T01:26:43.483Z,6.50
2023-08-06T01:29:15.260Z,6.85
2023-08-06T01:31:42.965Z,6.78
2023-08-06T01:34:11.395Z,6.40
2023-08-06T01:36:37.256Z,7.47
2023-08-06T01:39:04.964Z,6.78
2023-08-06T01:41:30.776Z,6.93
2023-08-06T01:43:56.666Z,7.90
2023-08-06T01:46:22.619Z,7.18
2023-08-06T01:48:48.406Z,6.63
2023-08-06T01:51:14.255Z,7.00
2023-08-06T01:53:40.076Z,7.13
2023-08-06T01:56:05.978Z,8.27
2023-08-06T01:58:31.872Z,8.73
2023-08-06T02:00:57.701Z,7.15
2023-08-06T02:03:23.930Z,7.32
2023-08-06T02:05:49.821Z,7.90
2023-08-06T02:08:15.677Z,7.45
2023-08-06T02:10:42.140Z,8.05
2023-08-06T02:13:07.961Z,7.43
2023-08-06T02:15:33.889Z,7.68
2023-08-06T02:17:59.767Z,7.40
2023-08-06T02:20:25.618Z,6.93
2023-08-06T02:22:51.402Z,6.97
2023-08-06T02:25:17.254Z,7.80
2023-08-06T02:27:43.184Z,8.30
2023-08-06T02:30:09.030Z,7.25
2023-08-06T02:32:36.374Z,6.97
2023-08-06T02:35:02.613Z,6.93
2023-08-06T02:37:28.397Z,7.70
2023-08-06T02:39:54.210Z,6.88
2023-08-06T02:42:20.130Z,6.93
2023-08-06T02:44:48.421Z,7.85
2023-08-06T02:47:14.210Z,7.85
2023-08-06T02:49:40.009Z,6.95
2023-08-06T02:52:06.166Z,7.45
2023-08-06T02:54:31.969Z,7.80
2023-08-06T02:56:57.753Z,6.25
2023-08-06T02:59:23.547Z,7.75
2023-08-06T03:01:49.386Z,6.95
2023-08-06T03:04:15.279Z,7.18
2023-08-06T03:06:41.094Z,7.20
2023-08-06T03:09:06.877Z,7.22
2023-08-06T03:11:32.695Z,7.25
2023-08-06T03:13:58.565Z,7.78
2023-08-06T03:16:24.366Z,6.95
2023-08-06T03:18:50.195Z,7.32
2023-08-06T03:21:16.187Z,6.65
2023-08-06T03:23:41.995Z,9.85
2023-08-06T03:26:07.832Z,6.68
2023-08-06T03:28:33.654Z,8.45
2023-08-06T03:31:00.239Z,8.10
2023-08-06T03:33:26.127Z,7.63
2023-08-06T03:35:51.910Z,7.95
2023-08-06T03:38:17.734Z,7.28
2023-08-06T03:40:43.952Z,7.50
2023-08-06T03:43:09.813Z,7.75
2023-08-06T03:45:35.641Z,8.40
2023-08-06T03:48:01.468Z,7.78
2023-08-06T03:50:27.272Z,8.27
2023-08-06T03:52:53.086Z,8.95
2023-08-06T03:55:18.887Z,7.65
2023-08-06T03:57:44.696Z,8.23
2023-08-06T04:00:11.078Z,7.90
2023-08-06T04:02:36.974Z,8.23
2023-08-06T04:05:03.215Z,8.05
2023-08-06T04:07:29.076Z,7.85
2023-08-06T04:09:55.877Z,8.18
2023-08-06T04:12:23.000Z,7.95
2023-08-06T04:14:50.890Z,7.15
2023-08-06T04:17:16.728Z,7.80
2023-08-06T04:19:42.549Z,7.18
2023-08-06T04:22:08.404Z,7.75
2023-08-06T04:24:34.286Z,7.43
2023-08-06T04:27:00.098Z,7.45
2023-08-06T04:29:26.006Z,7.03
2023-08-06T04:31:52.102Z,7.47
2023-08-06T04:34:18.117Z,7.05
2023-08-06T04:36:43.952Z,7.30
2023-08-06T04:39:09.811Z,7.93
2023-08-06T04:41:35.639Z,6.70
2023-08-06T04:44:01.419Z,6.75
2023-08-06T04:46:27.314Z,6.35
2023-08-06T04:48:53.270Z,8.07
2023-08-06T04:51:19.083Z,7.07
2023-08-06T04:53:44.922Z,6.18
2023-08-06T04:56:10.726Z,6.07
2023-08-06T04:58:38.714Z,6.78
2023-08-06T05:01:06.051Z,6.28
2023-08-06T05:03:31.904Z,5.85
2023-08-06T05:05:57.761Z,5.82
2023-08-06T05:08:23.620Z,6.50
2023-08-06T05:10:49.427Z,5.60
2023-08-06T05:13:15.276Z,5.60
2023-08-06T05:15:42.975Z,6.40
2023-08-06T05:18:09.147Z,5.88
2023-08-06T05:20:38.644Z,6.03
2023-08-06T05:23:04.579Z,5.72
2023-08-06T05:25:30.581Z,6.20
2023-08-06T05:27:56.417Z,5.50
2023-08-06T05:30:23.366Z,5.75
2023-08-06T05:32:49.253Z,5.47
2023-08-06T05:35:15.167Z,5.72
2023-08-06T05:37:42.039Z,5.68
2023-08-06T05:40:08.173Z,5.28
2023-08-06T05:42:34.153Z,5.18
2023-08-06T05:45:00.014Z,5.65
2023-08-06T05:47:25.874Z,5.60
2023-08-06T05:49:51.709Z,5.22
2023-08-06T05:52:17.509Z,4.78
2023-08-06T05:54:43.333Z,5.10
2023-08-06T05:57:09.149Z,4.65
2023-08-06T05:59:34.987Z,5.22
2023-08-06T06:02:00.970Z,5.47
2023-08-06T06:04:27.924Z,4.45
2023-08-06T06:06:53.775Z,5.10
2023-08-06T06:09:19.743Z,4.20
2023-08-06T06:11:45.677Z,4.10
2023-08-06T06:14:11.690Z,3.95
2023-08-06T06:16:39.645Z,4.32
2023-08-06T06:19:05.601Z,4.32
2023-08-06T06:21:31.774Z,4.88
2023-08-06T06:23:57.746Z,4.18
2023-08-06T06:26:23.644Z,4.38
2023-08-06T06:28:49.654Z,4.03
2023-08-06T06:31:15.587Z,4.38
2023-08-06T06:33:41.601Z,4.80
2023-08-06T06:36:08.353Z,4.47
2023-08-06T06:38:34.801Z,4.80
2023-08-06T06:41:01.327Z,3.85
2023-08-06T06:43:27.336Z,4.15
2023-08-06T06:45:54.678Z,3.90
2023-08-06T06:48:20.863Z,3.80
2023-08-06T06:50:50.351Z,4.72
2023-08-06T06:53:19.387Z,4.03
2023-08-06T06:55:45.525Z,3.20
2023-08-06T06:58:11.791Z,4.28
2023-08-06T07:00:38.859Z,3.28
2023-08-06T07:03:04.964Z,3.10
2023-08-06T07:05:31.100Z,2.92
2023-08-06T07:07:57.069Z,3.88
2023-08-06T07:10:23.088Z,3.97
2023-08-06T07:12:49.216Z,4.10
2023-08-06T07:15:15.442Z,3.90
2023-08-06T07:17:41.378Z,4.18
2023-08-06T07:20:10.419Z,4.00
2023-08-06T07:22:36.384Z,3.70
2023-08-06T07:25:02.516Z,4.40
2023-08-06T07:27:28.378Z,4.57
2023-08-06T07:29:54.829Z,3.90
2023-08-06T07:32:21.061Z,3.72
2023-08-06T07:34:46.963Z,4.35
2023-08-06T07:37:13.141Z,4.13
2023-08-06T07:39:39.981Z,4.45
2023-08-06T07:42:07.666Z,4.53
2023-08-06T07:44:33.702Z,4.68
2023-08-06T07:46:59.931Z,4.70
2023-08-06T07:49:27.827Z,7.43
2023-08-06T07:51:54.497Z,6.47
2023-08-06T07:54:20.740Z,5.75
2023-08-06T07:56:46.645Z,5.05
2023-08-06T07:59:12.523Z,6.30
2023-08-06T08:01:38.497Z,5.70
2023-08-06T08:04:05.330Z,6.43
2023-08-06T08:06:31.395Z,6.07
2023-08-06T08:08:57.395Z,6.68
2023-08-06T08:11:24.461Z,6.82
2023-08-06T08:13:50.376Z,6.47
2023-08-06T08:16:16.341Z,6.13
2023-08-06T08:18:42.237Z,5.30
2023-08-06T08:21:08.069Z,5.40
2023-08-06T08:23:55.878Z,6.53
2023-08-06T08:26:21.911Z,5.85
2023-08-06T08:28:48.509Z,5.72
2023-08-06T08:31:14.814Z,7.05
2023-08-06T08:33:40.794Z,7.05
2023-08-06T08:36:07.155Z,5.57
2023-08-06T08:38:33.154Z,6.18
2023-08-06T08:40:59.251Z,4.90
2023-08-06T08:43:25.409Z,5.90
2023-08-06T08:45:52.216Z,5.28
2023-08-06T08:48:19.794Z,5.05
2023-08-06T08:50:47.199Z,6.60
2023-08-06T08:53:17.197Z,4.90
2023-08-06T08:55:43.587Z,3.80
2023-08-06T08:58:15.095Z,4.20
2023-08-06T09:00:46.313Z,3.78
2023-08-06T09:03:12.960Z,3.83
2023-08-06T09:05:41.609Z,3.53
2023-08-06T09:08:09.089Z,3.58
2023-08-06T09:10:36.964Z,3.72
2023-08-06T09:13:09.103Z,3.35
2023-08-06T09:15:35.368Z,3.00
2023-08-06T09:18:09.674Z,3.92
2023-08-06T09:20:35.718Z,3.72
2023-08-06T09:23:16.910Z,3.28
2023-08-06T09:25:43.016Z,3.58
2023-08-06T09:28:09.142Z,2.97
2023-08-06T09:30:36.971Z,3.85
2023-08-06T09:33:03.147Z,2.80
2023-08-06T09:35:33.051Z,3.55
2023-08-06T09:38:09.317Z,3.58
2023-08-06T09:40:35.496Z,4.13
2023-08-06T09:43:04.295Z,3.05
2023-08-06T09:45:33.863Z,3.58
2023-08-06T09:48:00.700Z,3.25
2023-08-06T09:50:32.565Z,3.60
2023-08-06T09:52:59.096Z,3.40
2023-08-06T09:55:28.177Z,3.20
2023-08-06T09:57:54.346Z,3.00
2023-08-06T10:00:22.896Z,3.67
2023-08-06T10:02:50.467Z,3.55
2023-08-06T10:05:16.878Z,3.60
2023-08-06T10:07:45.658Z,3.75
2023-08-06T10:10:12.127Z,3.72
2023-08-06T10:12:43.607Z,3.10
2023-08-06T10:15:11.515Z,2.63
2023-08-06T10:17:50.299Z,2.92
2023-08-06T10:20:17.708Z,3.25
2023-08-06T10:22:47.494Z,3.20
2023-08-06T10:25:19.730Z,3.03
2023-08-06T10:27:48.722Z,3.13
2023-08-06T10:30:29.029Z,3.97
2023-08-06T10:32:57.629Z,3.08
2023-08-06T10:35:41.918Z,3.40
2023-08-06T10:38:09.396Z,2.55
2023-08-06T10:40:36.057Z,2.72
2023-08-06T10:43:03.000Z,3.38
2023-08-06T10:45:30.378Z,4.32
2023-08-06T10:47:58.586Z,3.20
2023-08-06T10:50:25.563Z,3.72
2023-08-06T10:52:51.945Z,4.07
2023-08-06T10:55:59.061Z,3.38
2023-08-06T10:58:25.072Z,3.10
2023-08-06T11:00:51.268Z,3.67
2023-08-06T11:03:17.901Z,3.08
2023-08-06T11:05:50.781Z,3.50
2023-08-06T11:08:27.081Z,2.92
2023-08-06T11:11:03.028Z,3.15
2023-08-06T11:13:30.775Z,2.78
2023-08-06T11:15:57.001Z,3.20
2023-08-06T11:18:23.431Z,3.53
2023-08-06T11:20:49.611Z,3.80
2023-08-06T11:23:26.690Z,3.13
2023-08-06T11:25:54.257Z,3.60
2023-08-06T11:28:23.647Z,3.35
2023-08-06T11:30:50.305Z,3.10
2023-08-06T11:33:23.543Z,2.85
2023-08-06T11:35:50.485Z,2.70
2023-08-06T11:38:17.337Z,3.47
2023-08-06T11:40:49.545Z,2.83
2023-08-06T11:43:16.492Z,3.33
2023-08-06T11:45:43.440Z,3.08
2023-08-06T11:48:09.627Z,3.17
2023-08-06T11:50:41.525Z,2.90
2023-08-06T11:54:01.345Z,3.20
2023-08-06T11:56:28.242Z,2.90
2023-08-06T11:58:55.200Z,3.90
2023-08-06T12:01:21.286Z,2.80
2023-08-06T12:03:47.519Z,3.35
2023-08-06T12:06:13.699Z,2.90
2023-08-06T12:08:43.091Z,3.20
2023-08-06T12:11:09.668Z,3.35
2023-08-06T12:13:35.684Z,3.47
2023-08-06T12:16:01.874Z,3.30
2023-08-06T12:18:27.986Z,3.20
2023-08-06T12:20:54.010Z,3.45
2023-08-06T12:23:19.930Z,3.72
2023-08-06T12:25:46.186Z,3.72
2023-08-06T12:28:12.966Z,4.13
2023-08-06T12:30:43.283Z,4.40
2023-08-06T12:33:10.217Z,4.25
2023-08-06T12:35:36.376Z,3.45
2023-08-06T12:38:02.600Z,4.20
2023-08-06T12:43:13.119Z,4.25
2023-08-06T12:45:41.085Z,3.95
2023-08-06T12:48:07.078Z,3.90
2023-08-06T12:50:35.864Z,3.85
2023-08-06T12:53:12.467Z,3.88
2023-08-06T12:55:42.896Z,3.97
2023-08-06T12:58:09.241Z,3.55
2023-08-06T13:00:35.348Z,3.80
2023-08-06T13:03:01.517Z,4.28
2023-08-06T13:05:27.875Z,4.88
2023-08-06T13:07:53.793Z,3.63
2023-08-06T13:10:21.028Z,3.92
2023-08-06T13:12:47.485Z,4.65
2023-08-06T13:15:15.308Z,3.97
2023-08-06T13:17:41.265Z,3.92
2023-08-06T13:20:07.706Z,3.92
2023-08-06T13:22:33.904Z,4.57
2023-08-06T13:25:22.176Z,4.30
2023-08-06T13:27:48.556Z,4.30
2023-08-06T13:30:14.810Z,4.38
2023-08-06T13:32:40.945Z,4.15
2023-08-06T13:35:07.271Z,4.13
2023-08-06T13:37:34.108Z,4.05
2023-08-06T13:40:06.860Z,4.00
2023-08-06T13:42:33.080Z,4.05
2023-08-06T13:45:03.696Z,4.10
2023-08-06T13:49:57.401Z,4.70
2023-08-06T13:52:23.278Z,3.60
2023-08-06T13:54:49.341Z,3.92
2023-08-06T13:57:15.417Z,3.75
2023-08-06T13:59:42.030Z,4.07
2023-08-06T14:02:08.187Z,4.43
2023-08-06T14:04:34.358Z,4.15
2023-08-06T14:07:05.659Z,4.13
2023-08-06T14:09:31.983Z,4.25
2023-08-06T14:11:58.124Z,4.20
2023-08-06T14:14:26.870Z,3.90
2023-08-06T14:16:53.881Z,4.43
2023-08-06T14:19:20.657Z,4.13
2023-08-06T14:21:48.409Z,4.00
2023-08-06T14:24:50.739Z,5.30
2023-08-06T14:27:19.972Z,4.40
2023-08-06T14:29:50.220Z,3.92
2023-08-06T14:32:23.229Z,3.45
2023-08-06T14:34:49.266Z,2.80
2023-08-06T14:37:15.475Z,3.92
2023-08-06T14:39:41.765Z,3.40
2023-08-06T14:42:08.137Z,2.53
2023-08-06T14:44:34.228Z,2.80
2023-08-06T14:47:00.354Z,4.20
2023-08-06T14:49:26.424Z,4.82
2023-08-06T14:51:52.513Z,4.03
2023-08-06T14:54:28.769Z,4.40
2023-08-06T14:56:55.958Z,4.43
2023-08-06T14:59:22.464Z,4.32
2023-08-06T15:01:48.886Z,4.50
2023-08-06T15:04:15.533Z,4.78
2023-08-06T15:06:47.400Z,4.30
2023-08-06T15:09:13.920Z,5.65
2023-08-06T15:11:40.245Z,5.70
2023-08-06T15:14:07.714Z,6.13
2023-08-06T15:16:38.304Z,5.80
2023-08-06T15:21:32.160Z,3.95
2023-08-06T15:24:20.626Z,4.18
2023-08-06T15:26:48.869Z,6.47
2023-08-06T15:29:17.849Z,6.38
2023-08-06T15:45:28.491Z,5.65
2023-08-06T15:47:54.714Z,5.38
2023-08-06T15:50:21.027Z,6.00
2023-08-06T15:52:47.108Z,5.75
2023-08-06T15:55:15.003Z,6.03
2023-08-06T15:57:41.205Z,5.85
2023-08-06T16:00:07.652Z,6.13
2023-08-06T16:05:39.416Z,6.65
2023-08-06T16:08:05.742Z,6.40
2023-08-06T16:10:34.317Z,6.38
2023-08-06T16:13:01.034Z,5.45
2023-08-06T16:15:32.711Z,5.97
2023-08-06T16:18:00.213Z,6.10
2023-08-06T16:20:26.271Z,6.05
2023-08-06T16:25:38.876Z,6.95
2023-08-06T16:28:05.411Z,5.97
2023-08-06T16:30:34.589Z,5.28
2023-08-06T16:33:01.017Z,5.00
2023-08-06T16:35:30.357Z,4.75
2023-08-06T16:37:56.457Z,5.43
2023-08-06T16:40:24.692Z,4.80
2023-08-06T16:42:50.815Z,5.80
2023-08-06T16:45:19.648Z,5.18
2023-08-06T16:47:45.940Z,5.43
2023-08-06T16:50:12.304Z,5.88
2023-08-06T16:52:38.487Z,5.88
2023-08-06T16:55:05.076Z,5.30
2023-08-06T16:57:31.064Z,5.03
2023-08-06T16:59:57.915Z,5.35
2023-08-06T17:02:24.081Z,6.13
2023-08-06T17:04:50.628Z,4.88
2023-08-06T17:07:19.416Z,5.38
2023-08-06T17:09:45.743Z,5.63
2023-08-06T17:12:11.838Z,6.22
2023-08-06T17:14:37.878Z,5.63
2023-08-06T17:17:04.051Z,5.13
2023-08-06T17:19:30.539Z,5.20
2023-08-06T17:21:56.758Z,5.78
2023-08-06T17:24:31.581Z,4.57
2023-08-06T17:26:59.447Z,4.88
2023-08-06T17:29:26.828Z,5.45
2023-08-06T17:31:57.403Z,5.43
2023-08-06T17:36:51.802Z,5.65
2023-08-06T17:39:19.080Z,5.38
2023-08-06T17:41:58.651Z,5.75
2023-08-06T17:44:30.713Z,5.75
2023-08-06T17:46:57.117Z,5.10
2023-08-06T17:49:24.006Z,5.30
2023-08-06T17:51:50.213Z,4.72
2023-08-06T17:54:16.318Z,5.30
2023-08-06T17:56:43.486Z,5.15
2023-08-06T17:59:09.891Z,4.90
2023-08-06T18:01:36.198Z,5.13
2023-08-06T18:04:02.472Z,5.70
2023-08-06T18:06:28.919Z,5.55
2023-08-06T18:08:58.235Z,4.72
2023-08-06T18:11:25.343Z,4.93
2023-08-06T18:13:58.353Z,5.93
2023-08-06T18:16:32.188Z,5.30
2023-08-06T18:18:58.678Z,5.50
2023-08-06T18:21:25.244Z,6.13
2023-08-06T18:23:51.344Z,6.05
2023-08-06T18:26:23.071Z,5.85
2023-08-06T18:28:49.968Z,5.50
2023-08-06T18:31:44.158Z,6.40
2023-08-06T18:34:11.075Z,6.38
2023-08-06T18:36:37.730Z,6.30
2023-08-06T18:39:08.445Z,6.28
2023-08-06T18:44:04.476Z,5.85
2023-08-06T18:46:31.061Z,5.57
2023-08-06T18:48:57.321Z,5.93
2023-08-06T18:51:23.484Z,6.90
2023-08-06T18:53:54.544Z,5.90
2023-08-06T18:56:21.685Z,6.70
2023-08-06T18:58:48.254Z,6.35
2023-08-06T19:01:18.707Z,6.13
2023-08-06T19:03:50.473Z,5.95
2023-08-06T19:06:21.134Z,5.57
2023-08-06T19:11:14.175Z,6.22
2023-08-06T19:13:43.666Z,5.22
2023-08-06T19:16:09.956Z,5.75
2023-08-06T19:18:37.575Z,5.82
2023-08-06T19:21:03.774Z,5.40
2023-08-06T19:23:42.454Z,5.15
2023-08-06T19:26:08.973Z,5.43
2023-08-06T19:28:34.961Z,5.32
2023-08-06T19:31:01.441Z,5.65
2023-08-06T19:33:28.705Z,5.15
2023-08-06T19:35:55.055Z,5.30
2023-08-06T19:38:24.562Z,5.25
2023-08-06T19:40:51.427Z,4.82
2023-08-06T19:43:18.780Z,5.15
2023-08-06T19:45:51.672Z,4.88
2023-08-06T19:48:17.579Z,5.20
2023-08-06T19:50:48.969Z,4.60
2023-08-06T19:53:14.854Z,5.60
2023-08-06T19:55:40.940Z,4.93
2023-08-06T19:58:07.657Z,4.97
2023-08-06T20:00:33.947Z,6.93
2023-08-06T20:02:59.863Z,6.15
2023-08-06T20:05:26.775Z,7.30
2023-08-06T20:07:52.597Z,7.32
2023-08-06T20:10:18.454Z,5.82
2023-08-06T20:12:44.316Z,5.75
2023-08-06T20:15:10.854Z,6.40
2023-08-06T20:17:36.731Z,5.95
2023-08-06T20:20:02.786Z,5.50
2023-08-06T20:22:28.612Z,6.07
2023-08-06T20:24:54.456Z,6.40
2023-08-06T20:27:20.358Z,6.82
2023-08-06T20:29:46.276Z,6.53
2023-08-06T20:32:12.094Z,5.55
2023-08-06T20:34:37.904Z,5.90
2023-08-06T20:37:03.915Z,6.05
2023-08-06T20:39:29.750Z,5.82
2023-08-06T20:41:55.934Z,5.38
2023-08-06T20:44:22.011Z,4.88
2023-08-06T20:46:48.009Z,5.03
2023-08-06T20:49:13.837Z,6.43
2023-08-06T20:51:39.688Z,5.05
2023-08-06T20:54:05.527Z,5.07
2023-08-06T20:56:31.423Z,5.38
2023-08-06T20:58:57.250Z,5.18
2023-08-06T21:01:23.172Z,5.28
2023-08-06T21:03:49.163Z,4.95
2023-08-06T21:06:16.922Z,5.13
2023-08-06T21:08:43.082Z,5.03
2023-08-06T21:11:13.864Z,5.63
2023-08-06T21:13:39.671Z,5.75
2023-08-06T21:16:05.990Z,5.47
2023-08-06T21:18:33.120Z,4.88
2023-08-06T21:20:59.549Z,5.03
2023-08-06T21:23:25.811Z,5.53
2023-08-06T21:25:55.144Z,4.97
2023-08-06T21:28:20.996Z,4.82
2023-08-06T21:30:53.697Z,4.45
2023-08-06T21:33:19.546Z,4.47
2023-08-06T21:35:45.320Z,4.22
2023-08-06T21:38:11.128Z,4.05
2023-08-06T21:40:36.924Z,4.25
2023-08-06T21:43:02.813Z,4.75
2023-08-06T21:45:29.614Z,3.10
2023-08-06T21:47:55.465Z,3.75
2023-08-06T21:50:21.296Z,3.70
2023-08-06T21:52:47.071Z,3.75
2023-08-06T21:55:12.941Z,3.40
2023-08-06T21:57:38.750Z,3.10
2023-08-06T22:00:04.883Z,4.43
2023-08-06T22:02:30.759Z,3.20
2023-08-06T22:04:56.619Z,3.08
2023-08-06T22:07:22.538Z,2.97
2023-08-06T22:09:48.321Z,3.35
2023-08-06T22:12:14.152Z,2.20
2023-08-06T22:14:39.948Z,2.72
2023-08-06T22:17:05.914Z,2.63
2023-08-06T22:19:31.735Z,2.78
2023-08-06T22:21:57.859Z,3.10
2023-08-06T22:24:23.864Z,2.53
2023-08-06T22:26:51.087Z,3.20
2023-08-06T22:29:16.897Z,3.20
2023-08-06T22:31:44.075Z,3.67
2023-08-06T22:34:09.866Z,3.72
2023-08-06T22:36:35.684Z,3.08
2023-08-06T22:39:01.564Z,3.00
2023-08-06T22:41:27.384Z,2.90
2023-08-06T22:43:53.264Z,2.65
2023-08-06T22:46:19.175Z,3.20
2023-08-06T22:48:45.049Z,2.50
2023-08-06T22:51:10.919Z,3.30
2023-08-06T22:53:36.799Z,3.17
2023-08-06T22:56:08.938Z,3.95
2023-08-06T22:58:35.531Z,4.07
2023-08-06T23:01:02.431Z,3.05
2023-08-06T23:03:28.581Z,3.65
2023-08-06T23:05:54.481Z,4.10
2023-08-06T23:08:20.302Z,3.92
2023-08-06T23:10:46.218Z,4.07
2023-08-06T23:13:12.264Z,4.00
2023-08-06T23:15:38.311Z,3.78
2023-08-06T23:18:04.384Z,3.53
2023-08-06T23:20:30.228Z,3.35
2023-08-06T23:22:56.051Z,4.07
2023-08-06T23:25:22.214Z,3.75
2023-08-06T23:27:48.009Z,3.58
2023-08-06T23:30:13.947Z,3.95
2023-08-06T23:32:40.542Z,4.88
2023-08-06T23:35:06.536Z,4.05
2023-08-06T23:37:33.500Z,4.03
2023-08-06T23:39:59.324Z,4.30
2023-08-06T23:42:26.817Z,5.13
2023-08-06T23:44:52.948Z,4.30
2023-08-06T23:47:18.767Z,3.83
2023-08-06T23:49:44.863Z,4.50
2023-08-06T23:52:10.706Z,4.57
2023-08-06T23:54:37.313Z,4.78
2023-08-06T23:57:03.357Z,4.72
2023-08-06T23:59:29.150Z,4.35
